createdAt,value
2022-12-09T00:01:07.137Z,17.67
2022-12-09T00:03:34.627Z,18.10
2022-12-09T00:06:19.870Z,18.30
2022-12-09T00:08:47.405Z,20.53
2022-12-09T00:11:14.219Z,17.13
2022-12-09T00:13:41.160Z,19.40
2022-12-09T00:16:10.806Z,18.40
2022-12-09T00:18:38.232Z,22.77
2022-12-09T00:21:26.427Z,15.93
2022-12-09T00:23:55.724Z,17.00
2022-12-09T00:26:24.509Z,18.73
2022-12-09T00:28:52.454Z,17.00
2022-12-09T00:31:24.315Z,18.10
2022-12-09T00:33:52.693Z,17.40
2022-12-09T00:36:22.039Z,17.87
2022-12-09T00:38:49.265Z,16.63
2022-12-09T00:41:17.035Z,19.27
2022-12-09T00:43:44.353Z,19.53
2022-12-09T00:46:12.680Z,16.60
2022-12-09T00:48:39.705Z,18.40
2022-12-09T00:51:08.210Z,16.37
2022-12-09T00:53:35.203Z,16.97
2022-12-09T00:56:02.290Z,18.90
2022-12-09T00:58:29.133Z,17.47
2022-12-09T01:00:56.787Z,16.77
2022-12-09T01:03:24.146Z,18.23
2022-12-09T01:05:51.154Z,18.57
2022-12-09T01:08:18.644Z,20.87
2022-12-09T01:10:46.379Z,19.50
2022-12-09T01:13:14.903Z,19.03
2022-12-09T01:15:42.443Z,19.07
2022-12-09T01:18:11.230Z,22.50
2022-12-09T01:20:37.982Z,17.90
2022-12-09T01:23:04.776Z,18.07
2022-12-09T01:25:31.707Z,20.10
2022-12-09T01:27:58.597Z,20.00
2022-12-09T01:30:25.874Z,20.40
2022-12-09T01:32:52.702Z,23.53
2022-12-09T01:35:19.965Z,22.63
2022-12-09T01:37:46.822Z,20.83
2022-12-09T01:40:17.788Z,20.13
2022-12-09T01:42:45.517Z,23.37
2022-12-09T01:45:30.310Z,21.80
2022-12-09T01:48:03.844Z,24.87
2022-12-09T01:50:32.769Z,21.13
2022-12-09T01:52:59.873Z,24.17
2022-12-09T01:55:27.471Z,24.87
2022-12-09T01:57:54.641Z,25.40
2022-12-09T02:00:21.765Z,26.50
2022-12-09T02:02:49.663Z,23.20
2022-12-09T02:05:17.267Z,25.33
2022-12-09T02:07:44.575Z,24.83
2022-12-09T02:10:15.376Z,23.77
2022-12-09T02:12:59.964Z,23.73
2022-12-09T02:15:50.989Z,25.23
2022-12-09T02:18:17.980Z,23.33
2022-12-09T02:21:00.233Z,22.23
2022-12-09T02:23:39.940Z,26.50
2022-12-09T02:26:34.431Z,25.33
2022-12-09T02:29:21.049Z,24.97
2022-12-09T02:32:09.709Z,26.40
2022-12-09T02:34:44.256Z,25.53
2022-12-09T02:37:24.153Z,31.13
2022-12-09T02:40:02.327Z,25.80
2022-12-09T02:42:33.472Z,29.50
2022-12-09T02:45:03.949Z,26.53
2022-12-09T02:47:34.854Z,30.83
2022-12-09T02:50:06.396Z,28.07
2022-12-09T02:52:35.635Z,32.70
2022-12-09T02:55:06.889Z,31.27
2022-12-09T02:57:37.207Z,28.63
2022-12-09T03:00:07.560Z,28.60
2022-12-09T03:02:44.900Z,27.30
2022-12-09T03:05:21.332Z,26.37
2022-12-09T03:08:06.446Z,31.10
2022-12-09T03:11:02.252Z,29.07
2022-12-09T03:13:32.146Z,28.30
2022-12-09T03:16:21.763Z,26.03
2022-12-09T03:18:55.692Z,31.53
2022-12-09T03:21:25.620Z,26.17
2022-12-09T03:23:56.341Z,27.43
2022-12-09T03:26:27.524Z,33.67
2022-12-09T03:28:56.036Z,27.77
2022-12-09T03:31:27.149Z,32.67
2022-12-09T03:33:57.896Z,30.77
2022-12-09T03:36:27.914Z,30.20
2022-12-09T03:38:55.669Z,31.03
2022-12-09T03:41:25.583Z,31.13
2022-12-09T03:44:04.659Z,29.93
2022-12-09T03:46:32.170Z,29.53
2022-12-09T03:48:59.241Z,22.77
2022-12-09T03:51:31.570Z,28.13
2022-12-09T03:54:06.100Z,31.10
2022-12-09T03:56:37.535Z,29.07
2022-12-09T03:59:09.546Z,27.20
2022-12-09T04:01:37.022Z,27.67
2022-12-09T04:04:04.077Z,29.47
2022-12-09T04:06:31.086Z,33.07
2022-12-09T04:09:02.157Z,28.20
2022-12-09T04:11:30.917Z,25.53
2022-12-09T04:13:57.790Z,29.73
2022-12-09T04:16:24.671Z,27.60
2022-12-09T04:18:51.600Z,27.90
2022-12-09T04:21:18.402Z,27.73
2022-12-09T04:23:45.135Z,28.37
2022-12-09T04:26:19.269Z,32.80
2022-12-09T04:28:46.089Z,30.20
2022-12-09T04:31:14.601Z,27.80
2022-12-09T04:33:41.912Z,29.90
2022-12-09T04:36:11.926Z,34.03
2022-12-09T04:38:39.151Z,32.87
2022-12-09T04:41:06.390Z,29.63
2022-12-09T04:43:33.623Z,32.63
2022-12-09T04:46:07.311Z,28.63
2022-12-09T04:48:34.304Z,32.30
2022-12-09T04:51:01.361Z,33.60
2022-12-09T04:53:28.574Z,34.17
2022-12-09T04:56:08.630Z,33.50
2022-12-09T04:58:35.672Z,33.80
2022-12-09T05:01:10.622Z,33.90
2022-12-09T05:03:38.624Z,33.07
2022-12-09T05:06:07.996Z,31.93
2022-12-09T05:08:35.201Z,32.50
2022-12-09T05:11:02.491Z,34.73
2022-12-09T05:13:29.845Z,32.87
2022-12-09T05:16:00.598Z,33.80
2022-12-09T05:18:29.010Z,32.27
2022-12-09T05:20:56.662Z,33.93
2022-12-09T05:23:23.817Z,31.57
2022-12-09T05:25:50.733Z,33.07
2022-12-09T05:28:17.832Z,31.07
2022-12-09T05:30:44.711Z,29.97
2022-12-09T05:33:12.303Z,32.50
2022-12-09T05:35:49.206Z,34.13
2022-12-09T05:38:19.544Z,30.93
2022-12-09T05:40:46.602Z,37.40
2022-12-09T05:43:13.854Z,31.37
2022-12-09T05:45:40.913Z,38.43
2022-12-09T05:48:07.747Z,35.47
2022-12-09T05:50:34.804Z,37.10
2022-12-09T05:53:02.071Z,32.27
2022-12-09T05:55:29.093Z,35.70
2022-12-09T05:57:56.195Z,37.30
2022-12-09T06:00:23.365Z,32.57
2022-12-09T06:02:50.407Z,32.77
2022-12-09T06:05:18.519Z,33.20
2022-12-09T06:07:45.878Z,32.70
2022-12-09T06:10:13.402Z,33.20
2022-12-09T06:12:40.440Z,29.87
2022-12-09T06:15:10.575Z,36.23
2022-12-09T06:17:38.731Z,34.93
2022-12-09T06:20:07.100Z,42.37
2022-12-09T06:22:35.013Z,36.57
2022-12-09T06:25:01.864Z,41.67
2022-12-09T06:27:28.748Z,37.33
2022-12-09T06:29:55.879Z,36.97
2022-12-09T06:32:23.238Z,35.47
2022-12-09T06:34:50.162Z,36.43
2022-12-09T06:37:17.694Z,35.63
2022-12-09T06:39:44.914Z,37.17
2022-12-09T06:42:11.964Z,36.10
2022-12-09T06:44:40.205Z,33.53
2022-12-09T06:47:08.415Z,40.80
2022-12-09T06:49:36.068Z,39.43
2022-12-09T06:52:03.185Z,35.23
2022-12-09T06:54:30.359Z,38.50
2022-12-09T06:56:57.207Z,45.53
2022-12-09T06:59:25.488Z,38.27
2022-12-09T07:01:52.651Z,35.63
2022-12-09T07:04:19.685Z,39.40
2022-12-09T07:06:47.081Z,34.13
2022-12-09T07:09:23.701Z,35.07
2022-12-09T07:11:51.506Z,38.00
2022-12-09T07:14:19.320Z,35.17
2022-12-09T07:16:46.940Z,38.80
2022-12-09T07:19:19.937Z,35.07
2022-12-09T07:21:47.798Z,34.20
2022-12-09T07:24:15.449Z,37.73
2022-12-09T07:26:42.653Z,34.63
2022-12-09T07:29:09.886Z,37.47
2022-12-09T07:31:36.883Z,35.17
2022-12-09T07:34:05.006Z,33.20
2022-12-09T07:36:33.787Z,30.97
2022-12-09T07:39:03.959Z,35.83
2022-12-09T07:41:31.155Z,38.63
2022-12-09T07:43:58.004Z,33.83
2022-12-09T07:46:27.635Z,32.43
2022-12-09T07:48:55.516Z,30.33
2022-12-09T07:51:24.357Z,36.10
2022-12-09T07:53:51.692Z,39.33
2022-12-09T07:56:19.558Z,33.87
2022-12-09T07:58:47.804Z,36.00
2022-12-09T08:01:17.345Z,28.70
2022-12-09T08:03:45.127Z,32.77
2022-12-09T08:06:15.141Z,35.23
2022-12-09T08:08:43.081Z,31.80
2022-12-09T08:11:15.481Z,33.57
2022-12-09T08:13:43.165Z,32.60
2022-12-09T08:16:12.409Z,34.47
2022-12-09T08:18:40.289Z,29.03
2022-12-09T08:21:11.038Z,27.93
2022-12-09T08:23:38.817Z,34.83
2022-12-09T08:26:06.285Z,31.70
2022-12-09T08:28:33.291Z,26.23
2022-12-09T08:31:07.716Z,30.70
2022-12-09T08:33:35.425Z,29.13
2022-12-09T08:36:04.586Z,25.63
2022-12-09T08:38:32.037Z,28.17
2022-12-09T08:40:59.256Z,33.17
2022-12-09T08:43:26.379Z,30.40
2022-12-09T08:45:53.228Z,32.40
2022-12-09T08:48:20.500Z,28.37
2022-12-09T08:50:48.665Z,28.83
2022-12-09T08:53:15.475Z,28.03
2022-12-09T08:55:42.903Z,30.77
2022-12-09T08:58:09.840Z,31.00
2022-12-09T09:00:36.594Z,29.20
2022-12-09T09:03:04.216Z,28.67
2022-12-09T09:05:32.052Z,30.13
2022-12-09T09:08:00.176Z,31.30
2022-12-09T09:10:27.733Z,31.70
2022-12-09T09:12:54.899Z,30.40
2022-12-09T09:15:22.130Z,33.80
2022-12-09T09:17:51.814Z,29.37
2022-12-09T09:20:19.968Z,30.67
2022-12-09T09:22:47.042Z,32.97
2022-12-09T09:25:14.695Z,30.13
2022-12-09T09:27:42.121Z,29.87
2022-12-09T09:30:10.314Z,32.03
2022-12-09T09:32:37.417Z,28.23
2022-12-09T09:35:05.412Z,32.20
2022-12-09T09:37:32.995Z,29.97
2022-12-09T09:39:59.829Z,29.53
2022-12-09T09:42:35.725Z,30.50
2022-12-09T09:45:10.623Z,27.37
2022-12-09T09:47:43.335Z,31.83
2022-12-09T09:50:31.764Z,24.73
2022-12-09T09:53:02.517Z,30.37
2022-12-09T09:56:00.823Z,28.53
2022-12-09T09:58:49.549Z,29.00
2022-12-09T10:01:19.070Z,29.23
2022-12-09T10:04:03.062Z,28.23
2022-12-09T10:07:10.664Z,29.83
2022-12-09T10:09:41.471Z,28.53
2022-12-09T10:12:36.856Z,26.57
2022-12-09T10:15:14.469Z,27.83
2022-12-09T10:17:54.176Z,27.27
2022-12-09T10:20:28.652Z,29.07
2022-12-09T10:23:07.218Z,26.60
2022-12-09T10:25:37.969Z,29.73
2022-12-09T10:28:16.140Z,26.47
2022-12-09T10:30:45.029Z,29.40
2022-12-09T10:33:14.196Z,27.60
2022-12-09T10:35:41.816Z,30.70
2022-12-09T10:38:17.546Z,25.47
2022-12-09T10:40:48.101Z,25.33
2022-12-09T10:43:55.156Z,26.30
2022-12-09T10:46:24.908Z,28.67
2022-12-09T10:48:57.413Z,29.87
2022-12-09T10:51:28.182Z,30.57
2022-12-09T10:54:02.691Z,27.63
2022-12-09T10:56:34.231Z,26.63
2022-12-09T10:59:13.717Z,29.93
2022-12-09T11:02:01.849Z,25.73
2022-12-09T11:04:35.088Z,27.20
2022-12-09T11:07:10.210Z,29.67
2022-12-09T11:09:41.867Z,31.27
2022-12-09T11:12:29.987Z,28.83
2022-12-09T11:15:02.104Z,26.07
2022-12-09T11:17:42.289Z,29.57
2022-12-09T11:20:22.646Z,29.27
2022-12-09T11:23:21.330Z,27.50
2022-12-09T11:26:21.735Z,25.90
2022-12-09T11:29:15.843Z,23.13
2022-12-09T11:31:43.677Z,27.17
2022-12-09T11:34:26.346Z,30.83
2022-12-09T11:36:56.650Z,28.83
2022-12-09T11:39:33.331Z,31.00
2022-12-09T11:42:18.593Z,23.93
2022-12-09T11:45:00.609Z,26.83
2022-12-09T11:47:50.477Z,27.20
2022-12-09T11:50:32.457Z,29.17
2022-12-09T11:53:13.034Z,25.53
2022-12-09T11:55:58.305Z,22.80
2022-12-09T11:58:40.488Z,26.47
2022-12-09T12:01:15.824Z,26.57
2022-12-09T12:03:47.269Z,28.97
2022-12-09T12:06:28.843Z,33.23
2022-12-09T12:09:05.715Z,25.33
2022-12-09T12:11:46.586Z,26.60
2022-12-09T12:14:17.592Z,27.70
2022-12-09T12:16:53.278Z,25.60
2022-12-09T12:19:23.397Z,25.90
2022-12-09T12:22:07.082Z,25.87
2022-12-09T12:24:56.742Z,27.00
2022-12-09T12:27:56.924Z,28.60
2022-12-09T12:30:33.160Z,29.47
2022-12-09T12:36:28.392Z,30.83
2022-12-09T12:39:13.937Z,24.30
2022-12-09T12:41:50.331Z,27.90
2022-12-09T12:44:44.264Z,27.80
2022-12-09T12:47:11.038Z,29.30
2022-12-09T12:49:56.301Z,26.57
2022-12-09T12:55:43.790Z,28.23
2022-12-09T12:58:38.372Z,27.80
2022-12-09T13:01:33.441Z,28.70
2022-12-09T13:04:19.224Z,29.77
2022-12-09T13:06:45.876Z,23.53
2022-12-09T13:09:29.332Z,26.80
2022-12-09T13:12:45.331Z,27.13
2022-12-09T13:15:18.311Z,29.10
2022-12-09T13:17:48.061Z,27.87
2022-12-09T13:20:48.931Z,27.53
2022-12-09T13:23:30.899Z,23.23
2022-12-09T13:26:33.948Z,26.20
2022-12-09T13:29:34.774Z,25.53
2022-12-09T13:32:21.633Z,25.27
2022-12-09T13:34:55.497Z,25.17
2022-12-09T13:37:34.704Z,25.60
2022-12-09T13:40:02.938Z,24.60
2022-12-09T13:42:48.080Z,23.83
2022-12-09T13:45:22.370Z,23.43
2022-12-09T13:47:49.345Z,26.27
2022-12-09T13:50:57.218Z,27.10
2022-12-09T13:53:34.007Z,23.17
2022-12-09T13:56:16.038Z,25.90
2022-12-09T13:59:13.538Z,18.97
2022-12-09T14:01:50.991Z,22.37
2022-12-09T14:04:33.738Z,19.67
2022-12-09T14:07:09.644Z,18.70
2022-12-09T14:09:50.894Z,20.83
2022-12-09T14:12:26.730Z,21.47
2022-12-09T14:15:17.585Z,19.17
2022-12-09T14:18:04.621Z,21.50
2022-12-09T14:20:38.134Z,23.50
2022-12-09T14:23:07.951Z,22.67
2022-12-09T14:25:34.649Z,20.90
2022-12-09T14:28:25.429Z,23.33
2022-12-09T14:31:06.701Z,25.33
2022-12-09T14:33:36.845Z,23.17
2022-12-09T14:36:23.127Z,20.10
2022-12-09T14:39:25.668Z,21.07
2022-12-09T14:41:58.797Z,20.77
2022-12-09T14:44:44.260Z,23.80
2022-12-09T14:47:20.394Z,23.90
2022-12-09T14:49:49.599Z,24.43
2022-12-09T14:52:30.519Z,25.37
2022-12-09T14:55:00.138Z,21.30
2022-12-09T14:57:48.072Z,20.80
2022-12-09T15:00:44.212Z,20.03
2022-12-09T15:03:45.362Z,19.80
2022-12-09T15:06:17.637Z,23.90
2022-12-09T15:08:45.074Z,24.07
2022-12-09T15:11:18.243Z,20.87
2022-12-09T15:13:48.177Z,20.37
2022-12-09T15:16:24.285Z,20.97
2022-12-09T15:18:52.531Z,19.60
2022-12-09T15:21:32.729Z,21.93
2022-12-09T15:24:00.568Z,21.03
2022-12-09T15:26:29.453Z,20.80
2022-12-09T15:28:57.489Z,24.47
2022-12-09T15:31:27.051Z,18.57
2022-12-09T15:34:00.007Z,21.00
2022-12-09T15:36:32.560Z,25.90
2022-12-09T15:39:08.375Z,23.27
2022-12-09T15:41:59.223Z,22.33
2022-12-09T15:44:27.554Z,19.70
2022-12-09T15:46:57.057Z,24.57
2022-12-09T15:49:31.865Z,22.20
2022-12-09T15:52:02.010Z,21.67
2022-12-09T15:54:37.988Z,22.20
2022-12-09T15:57:07.213Z,19.43
2022-12-09T15:59:40.820Z,23.10
2022-12-09T16:02:19.875Z,20.97
2022-12-09T16:04:48.686Z,28.00
2022-12-09T16:07:18.944Z,25.27
2022-12-09T16:10:16.211Z,21.17
2022-12-09T16:12:43.913Z,24.90
2022-12-09T16:15:14.166Z,25.27
2022-12-09T16:17:55.333Z,25.20
2022-12-09T16:20:35.167Z,20.33
2022-12-09T16:23:03.687Z,25.20
2022-12-09T16:25:38.378Z,22.07
2022-12-09T16:28:06.965Z,22.50
2022-12-09T16:30:44.642Z,21.83
2022-12-09T16:33:20.344Z,24.63
2022-12-09T16:35:56.931Z,26.17
2022-12-09T16:38:24.319Z,22.07
2022-12-09T16:40:53.781Z,20.97
2022-12-09T16:43:25.213Z,25.73
2022-12-09T16:45:54.223Z,25.90
2022-12-09T16:48:23.202Z,20.57
2022-12-09T16:51:14.259Z,28.00
2022-12-09T16:53:46.422Z,25.73
2022-12-09T16:56:30.920Z,22.37
2022-12-09T16:58:59.270Z,25.77
2022-12-09T17:01:31.837Z,23.50
2022-12-09T17:04:04.299Z,23.40
2022-12-09T17:06:31.558Z,23.57
2022-12-09T17:08:58.349Z,21.83
2022-12-09T17:11:25.197Z,25.23
2022-12-09T17:13:52.464Z,22.70
2022-12-09T17:16:22.201Z,28.43
2022-12-09T17:18:49.581Z,21.67
2022-12-09T17:21:16.803Z,26.50
2022-12-09T17:23:43.521Z,26.57
2022-12-09T17:26:12.994Z,23.60
2022-12-09T17:28:40.743Z,28.47
2022-12-09T17:31:09.665Z,23.13
2022-12-09T17:33:36.881Z,22.23
2022-12-09T17:36:03.802Z,24.43
2022-12-09T17:38:30.687Z,22.60
2022-12-09T17:41:02.149Z,24.33
2022-12-09T17:43:28.822Z,26.63
2022-12-09T17:45:58.030Z,29.03
2022-12-09T17:48:24.777Z,25.47
2022-12-09T17:50:51.451Z,25.93
2022-12-09T17:53:18.178Z,24.57
2022-12-09T17:55:44.883Z,30.43
2022-12-09T17:58:11.631Z,25.70
2022-12-09T18:00:39.645Z,21.43
2022-12-09T18:03:07.146Z,26.13
2022-12-09T18:05:38.348Z,25.67
2022-12-09T18:08:06.228Z,24.97
2022-12-09T18:10:33.309Z,24.07
2022-12-09T18:12:59.972Z,21.67
2022-12-09T18:15:27.351Z,23.37
2022-12-09T18:17:54.121Z,22.90
2022-12-09T18:20:20.802Z,24.40
2022-12-09T18:22:47.501Z,22.07
2022-12-09T18:25:14.215Z,26.63
2022-12-09T18:27:40.992Z,21.83
2022-12-09T18:30:08.632Z,21.97
2022-12-09T18:32:36.326Z,25.03
2022-12-09T18:35:03.384Z,25.87
2022-12-09T18:37:30.627Z,23.57
2022-12-09T18:39:57.351Z,25.10
2022-12-09T18:42:24.094Z,24.93
2022-12-09T18:44:50.806Z,26.17
2022-12-09T18:47:17.864Z,28.87
2022-12-09T18:49:44.669Z,26.13
2022-12-09T18:52:11.425Z,30.37
2022-12-09T18:54:38.249Z,25.50
2022-12-09T18:57:04.980Z,25.97
2022-12-09T18:59:31.887Z,36.00
2022-12-09T19:01:58.807Z,25.93
2022-12-09T19:04:28.062Z,28.47
2022-12-09T19:07:00.167Z,29.10
2022-12-09T19:09:31.902Z,24.97
2022-12-09T19:12:16.610Z,25.90
2022-12-09T19:14:46.191Z,31.30
2022-12-09T19:17:12.891Z,24.83
2022-12-09T19:19:39.697Z,25.87
2022-12-09T19:22:08.236Z,27.20
2022-12-09T19:24:39.818Z,30.47
2022-12-09T19:27:09.587Z,25.63
2022-12-09T19:29:36.474Z,22.97
2022-12-09T19:32:03.339Z,26.03
2022-12-09T19:34:30.836Z,24.13
2022-12-09T19:37:00.405Z,25.03
2022-12-09T19:39:33.914Z,30.03
2022-12-09T19:42:01.348Z,27.73
2022-12-09T19:44:59.488Z,27.97
2022-12-09T19:47:15.320Z,25.70
2022-12-09T19:49:44.325Z,25.30
2022-12-09T19:52:12.052Z,22.77
2022-12-09T19:54:39.117Z,22.90
2022-12-09T19:57:06.507Z,25.90
2022-12-09T19:59:33.292Z,25.07
2022-12-09T20:02:00.478Z,28.73
2022-12-09T20:07:15.124Z,28.30
2022-12-09T20:09:41.855Z,28.60
2022-12-09T20:12:08.634Z,26.10
2022-12-09T20:14:35.748Z,27.37
2022-12-09T20:17:02.501Z,27.40
2022-12-09T20:19:29.332Z,26.87
2022-12-09T20:21:56.115Z,28.43
2022-12-09T20:24:23.251Z,26.03
2022-12-09T20:26:50.093Z,28.73
2022-12-09T20:29:16.955Z,29.17
2022-12-09T20:31:43.743Z,26.37
2022-12-09T20:34:16.142Z,28.70
2022-12-09T20:36:44.984Z,26.57
2022-12-09T20:39:18.003Z,26.00
2022-12-09T20:41:45.310Z,24.97
2022-12-09T20:44:13.072Z,27.43
2022-12-09T20:46:41.526Z,29.83
2022-12-09T20:49:09.635Z,26.03
2022-12-09T20:51:38.798Z,24.03
2022-12-09T20:54:06.279Z,27.53
2022-12-09T20:56:34.076Z,27.10
2022-12-09T20:59:00.919Z,27.83
2022-12-09T21:01:30.207Z,27.90
2022-12-09T21:03:59.056Z,28.87
2022-12-09T21:06:32.287Z,30.20
2022-12-09T21:09:04.409Z,27.57
2022-12-09T21:11:32.477Z,31.87
2022-12-09T21:14:02.043Z,27.80
2022-12-09T21:16:32.129Z,31.93
2022-12-09T21:19:05.735Z,30.87
2022-12-09T21:21:34.811Z,26.67
2022-12-09T21:24:02.351Z,28.33
2022-12-09T21:26:29.451Z,33.07
2022-12-09T21:28:58.123Z,28.87
2022-12-09T21:31:27.529Z,32.20
2022-12-09T21:33:56.607Z,28.00
2022-12-09T21:36:26.399Z,29.77
2022-12-09T21:38:53.862Z,27.60
2022-12-09T21:41:26.647Z,29.30
2022-12-09T21:43:55.148Z,28.80
2022-12-09T21:46:27.639Z,33.70
2022-12-09T21:49:00.126Z,32.13
2022-12-09T21:51:30.611Z,27.73
2022-12-09T21:53:57.551Z,31.07
2022-12-09T21:56:26.658Z,29.27
2022-12-09T21:58:56.215Z,28.00
2022-12-09T22:01:32.039Z,33.43
2022-12-09T22:04:00.688Z,34.23
2022-12-09T22:06:27.819Z,31.80
2022-12-09T22:08:54.970Z,30.37
2022-12-09T22:11:31.802Z,32.23
2022-12-09T22:14:00.289Z,33.70
2022-12-09T22:16:31.019Z,36.70
2022-12-09T22:18:59.143Z,32.33
2022-12-09T22:21:28.868Z,37.90
2022-12-09T22:23:58.711Z,37.30
2022-12-09T22:26:26.324Z,29.60
2022-12-09T22:28:54.099Z,32.67
2022-12-09T22:31:24.321Z,37.77
2022-12-09T22:33:53.707Z,34.63
2022-12-09T22:36:20.853Z,32.50
2022-12-09T22:38:48.745Z,30.60
2022-12-09T22:41:19.027Z,32.93
2022-12-09T22:43:46.223Z,30.57
2022-12-09T22:46:23.059Z,37.23
2022-12-09T22:48:49.999Z,35.30
2022-12-09T22:51:20.573Z,28.43
2022-12-09T22:53:48.285Z,35.90
2022-12-09T22:56:15.045Z,33.03
2022-12-09T22:58:41.871Z,32.87
2022-12-09T23:01:19.932Z,34.23
2022-12-09T23:03:47.027Z,39.03
2022-12-09T23:06:14.141Z,31.00
2022-12-09T23:08:42.627Z,38.10
2022-12-09T23:11:12.847Z,30.40
2022-12-09T23:13:41.404Z,36.13
2022-12-09T23:16:12.534Z,32.77
2022-12-09T23:18:40.140Z,32.43
2022-12-09T23:21:21.839Z,39.40
2022-12-09T23:23:51.379Z,35.53
2022-12-09T23:26:20.468Z,37.90
2022-12-09T23:28:50.173Z,43.78
2022-12-09T23:31:19.523Z,36.43
2022-12-09T23:33:48.255Z,31.57
2022-12-09T23:36:17.671Z,39.07
2022-12-09T23:38:44.939Z,40.60
2022-12-09T23:41:12.593Z,35.33
2022-12-09T23:43:39.722Z,33.97
2022-12-09T23:46:14.847Z,36.40
2022-12-09T23:48:43.031Z,43.80
2022-12-09T23:51:13.691Z,29.23
2022-12-09T23:53:41.538Z,34.43
2022-12-09T23:56:12.612Z,39.10
2022-12-09T23:58:39.967Z,36.10
